WetterOnline ( https://www.wetteronline.de )

Wetter aktuell Greifswalder Bodden

Aktuelles Wetter: Greifswalder Oie (12m)

6-stündlich | Neueste Meldungen
Ortszeit Temperatur Wetter
Do, 23.05. 2:00 14.2° C bedeckt
Mi, 22.05. 20:00 15.3° C bedeckt
Mi, 22.05. 14:00 16.0° C leicht bewölkt
Mi, 22.05. 8:00 14.6° C fast wolkenlos
Mi, 22.05. 2:00 13.2° C wolkenlos
Di, 21.05. 20:00 13.8° C fast wolkenlos
Di, 21.05. 14:00 14.5° C wolkenlos
Di, 21.05. 8:00 12.7° C fast wolkenlos
Ortszeit Temperatur Wetter
Do, 23.05. 5:00 14.8° C bedeckt
Do, 23.05. 4:50 14.8° C bedeckt
Do, 23.05. 4:40 14.8° C bedeckt
Do, 23.05. 4:30 14.7° C wolkig
Do, 23.05. 4:20 14.7° C wolkig
Do, 23.05. 4:10 14.7° C bewölkt
Do, 23.05. 4:00 14.7° C bewölkt
Do, 23.05. 3:30 14.4° C bedeckt
Do, 23.05. 3:00 14.1° C wolkig
Do, 23.05. 2:30 13.8° C bedeckt
Do, 23.05. 2:00 14.2° C bedeckt
Ortszeit Relative Feuchte Sichtweite
Do, 23.05. 2:00 95% 24 km
Mi, 22.05. 20:00 83% 30 km
Mi, 22.05. 14:00 82% 30 km
Mi, 22.05. 8:00 88% 30 km
Mi, 22.05. 2:00 93% 28 km
Di, 21.05. 20:00 87% 30 km
Di, 21.05. 14:00 86% 35 km
Di, 21.05. 8:00 91% 30 km
Ortszeit Relative Feuchte Sichtweite
Do, 23.05. 5:00 94% 25 km
Do, 23.05. 4:50 94% -
Do, 23.05. 4:40 94% -
Do, 23.05. 4:30 94% 24 km
Do, 23.05. 4:20 94% -
Do, 23.05. 4:10 94% -
Do, 23.05. 4:00 94% 27 km
Do, 23.05. 3:30 94% 25 km
Do, 23.05. 3:00 95% 29 km
Do, 23.05. 2:30 94% 27 km
Do, 23.05. 2:00 95% 24 km
Ortszeit Niederschlagsmenge Niederschlagsart
Do, 23.05. 2:00 0.0 l/m2 in 6 Std. -
Mi, 22.05. 20:00 0.0 l/m2 in 12 Std. -
Mi, 22.05. 14:00 0.0 l/m2 in 6 Std. -
Mi, 22.05. 8:00 0.0 l/m2 in 12 Std. -
Mi, 22.05. 2:00 0.0 l/m2 in 6 Std. -
Di, 21.05. 20:00 0.0 l/m2 in 12 Std. -
Di, 21.05. 14:00 0.0 l/m2 in 6 Std. -
Di, 21.05. 8:00 0.0 l/m2 in 12 Std. -
Ortszeit Niederschlagsmenge Niederschlagsart
Do, 23.05. 5:00 <0.05 l/m2 in 1 Std. Regen
Do, 23.05. 4:50 keine Meldung -
Do, 23.05. 4:40 keine Meldung -
Do, 23.05. 4:30 <0.05 l/m2 in 30 Min Schnee
Do, 23.05. 4:20 keine Meldung -
Do, 23.05. 4:10 keine Meldung -
Do, 23.05. 4:00 <0.05 l/m2 in 1 Std. Regen
Do, 23.05. 3:30 0.0 l/m2 in 30 Min -
Do, 23.05. 3:00 0.0 l/m2 in 1 Std. -
Do, 23.05. 2:30 0.0 l/m2 in 30 Min -
Do, 23.05. 2:00 0.0 l/m2 in 1 Std. -
Ortszeit Stärke Spitze Richtung
km/h Bft. km/h Grad Sektor
Do, 23.05. 2:00 13 3 50 90° O
Mi, 22.05. 20:00 37 5 56 70° O
Mi, 22.05. 14:00 31 5 44 70° O
Mi, 22.05. 8:00 25 4 50 90° O
Mi, 22.05. 2:00 35 5 57 70° O
Di, 21.05. 20:00 37 5 52 70° O
Di, 21.05. 14:00 30 5 43 70° O
Di, 21.05. 8:00 29 5 43 70° O
Ortszeit Stärke Spitze Richtung
km/h Bft. km/h Grad Sektor
Do, 23.05. 5:00 7 2 11 90° O
Do, 23.05. 4:50 7 2 - 90° O
Do, 23.05. 4:40 9 2 - 90° O
Do, 23.05. 4:30 9 2 11 110° O
Do, 23.05. 4:20 9 2 - 110° O
Do, 23.05. 4:10 9 2 - 100° O
Do, 23.05. 4:00 9 2 15 90° O
Do, 23.05. 3:30 11 2 14 80° O
Do, 23.05. 3:00 11 2 19 100° O
Do, 23.05. 2:30 13 3 19 80° O
Do, 23.05. 2:00 13 3 19 90° O
Ortszeit Untergrenze Bedeckung Gattung
total tief tief mittel hoch
Do, 23.05. 2:00 4200 m 8/8 8/8 - - -
Mi, 22.05. 20:00 4800 m 8/8 8/8 - - -
Mi, 22.05. 14:00 5100 m 3/8 3/8 - - -
Mi, 22.05. 8:00 10500 m 1/8 0/8 - - -
Mi, 22.05. 2:00 - 0/8 0/8 - - -
Di, 21.05. 20:00 8400 m 1/8 0/8 - - -
Di, 21.05. 14:00 - 0/8 0/8 - - -
Di, 21.05. 8:00 150 m 1/8 1/8 - - -
Ortszeit Bedeckungsgrad in Achtel und Wolkenuntergrenze
Do, 23.05. 5:00 7(570m) 8(2400m)
Do, 23.05. 4:50 7(570m) 8(2400m)
Do, 23.05. 4:40 8
Do, 23.05. 4:30 2(660m) 7(3000m) 7(3900m)
Do, 23.05. 4:20 2(660m) 7(3000m) 7(3900m)
Do, 23.05. 4:10 7
Do, 23.05. 4:00 6(660m) 7(3300m) 8(4200m)
Do, 23.05. 3:30 7(3000m) 8(3900m) 8(5700m)
Do, 23.05. 3:00 3(2400m) 8(4500m) 8(5400m)
Do, 23.05. 2:30 8(3900m) 8(6000m)
Do, 23.05. 2:00 7(4200m) 8(5400m)
Ortszeit Luftdruck NN (hPa) Tendenz (hPa in 3 Std.)
Do, 23.05. 2:00 1010 - 0,3
Mi, 22.05. 20:00 1008 - 0,4
Mi, 22.05. 14:00 1010 - 0,2
Mi, 22.05. 8:00 1010 + 0,2
Mi, 22.05. 2:00 1011 - 0,9
Di, 21.05. 20:00 1012 - 1,0
Di, 21.05. 14:00 1015 - 0,8
Di, 21.05. 8:00 1016 + 0,5
Ortszeit Luftdruck NN (hPa) Tendenz (hPa in 3 Std.)
Do, 23.05. 5:00 1010 0,0
Do, 23.05. 4:50 1010 keine Meldung
Do, 23.05. 4:40 1010 keine Meldung
Do, 23.05. 4:30 1010 + 0,2
Do, 23.05. 4:20 1010 keine Meldung
Do, 23.05. 4:10 1010 keine Meldung
Do, 23.05. 4:00 1010 0,0
Do, 23.05. 3:30 1010 - 0,2
Do, 23.05. 3:00 1010 - 0,1
Do, 23.05. 2:30 1010 - 0,1
Do, 23.05. 2:00 1010 - 0,3
Ortszeit Schneehöhe (cm)
Do, 23.05. 2:00 0
Mi, 22.05. 20:00 0
Mi, 22.05. 14:00 0
Mi, 22.05. 8:00 0
Mi, 22.05. 2:00 0
Di, 21.05. 20:00 0
Di, 21.05. 14:00 0
Di, 21.05. 8:00 0
Ortszeit Schneehöhe (cm)
Do, 23.05. 5:00 0
Do, 23.05. 4:50 0
Do, 23.05. 4:40 -
Do, 23.05. 4:30 0
Do, 23.05. 4:20 0
Do, 23.05. 4:10 -
Do, 23.05. 4:00 0
Do, 23.05. 3:30 0
Do, 23.05. 3:00 0
Do, 23.05. 2:30 0
Do, 23.05. 2:00 0
Link zu dieser Seite / Seite empfehlen

Das Wetter in ...